Time;durP1;ratioP1;P1;durP2;ratioP2;P2;SDS_P1;SDS_P2;PMS_P1;PMS_P2;Temp;Humidity;BMP_temperature;BMP_pressure;BME280_temperature;BME280_humidity;BME280_pressure;Samples;Min_cycle;Max_cycle;Signal;HPM_P1;HPM_P2
2022/05/17 00:02:23;;;;;;;1.73;1.17;;;;;;;13.78;100.00;99926.91;7394698;19;20390;-54
2022/05/17 00:04:50;;;;;;;4.70;1.13;;;;;;;13.78;100.00;99924.13;7390837;19;20754;-54
2022/05/17 00:07:16;;;;;;;2.67;0.47;;;;;;;13.68;100.00;99921.50;7392184;19;20015;-54
2022/05/17 00:09:42;;;;;;;0.70;0.70;;;;;;;13.58;100.00;99911.75;7392415;19;20029;-54
2022/05/17 00:12:09;;;;;;;0.25;0.25;;;;;;;13.40;100.00;99917.69;7396639;19;20022;-54
2022/05/17 00:14:36;;;;;;;0.60;0.60;;;;;;;13.21;100.00;99918.50;7393240;19;20490;-54
2022/05/17 00:17:04;;;;;;;4.70;1.13;;;;;;;13.09;100.00;99914.78;7393893;19;20017;-54
2022/05/17 00:19:30;;;;;;;2.65;1.23;;;;;;;13.06;100.00;99910.16;7389772;19;20086;-54
2022/05/17 00:21:57;;;;;;;0.65;0.65;;;;;;;12.95;100.00;99915.59;7395067;19;20099;-54
2022/05/17 00:24:25;;;;;;;1.75;1.55;;;;;;;12.80;100.00;99915.69;7392525;19;20026;-54
2022/05/17 00:26:52;;;;;;;3.08;0.60;;;;;;;12.69;100.00;99909.94;7392722;19;20011;-54
2022/05/17 00:29:18;;;;;;;3.28;1.08;;;;;;;12.81;100.00;99913.66;7393315;19;20066;-54
2022/05/17 00:31:44;;;;;;;3.90;0.90;;;;;;;12.81;100.00;99908.06;7394775;19;20027;-54
2022/05/17 00:34:11;;;;;;;0.85;0.65;;;;;;;12.76;100.00;99909.53;7392361;19;20481;-54
2022/05/17 00:36:38;;;;;;;1.15;0.77;;;;;;;12.79;100.00;99913.38;7392679;19;20010;-54
2022/05/17 00:39:04;;;;;;;1.58;0.30;;;;;;;12.76;100.00;99914.34;7390842;19;20070;-54
2022/05/17 00:41:30;;;;;;;0.32;0.32;;;;;;;12.68;100.00;99907.66;7393273;19;20015;-54
2022/05/17 00:46:51;;;;;;;5.47;1.20;;;;;;;12.72;100.00;99911.00;7392268;19;20023;-54
2022/05/17 00:49:26;;;;;;;1.98;1.33;;;;;;;12.86;100.00;99899.75;7391089;19;20030;-54
2022/05/17 00:51:58;;;;;;;0.70;0.52;;;;;;;13.03;100.00;99901.97;7393590;19;20021;-54
2022/05/17 00:54:25;;;;;;;0.80;0.43;;;;;;;13.04;100.00;99907.06;7391328;19;20014;-54
2022/05/17 00:57:02;;;;;;;3.13;0.52;;;;;;;13.12;100.00;99896.28;7391426;19;20010;-54
2022/05/17 00:59:29;;;;;;;2.17;0.70;;;;;;;13.19;100.00;99896.59;7390724;19;20023;-54
2022/05/17 01:01:55;;;;;;;0.80;0.57;;;;;;;13.14;100.00;99899.34;7393035;19;20018;-54
2022/05/17 01:04:24;;;;;;;0.20;0.20;;;;;;;13.08;100.00;99895.72;7390592;19;20010;-54
2022/05/17 01:07:02;;;;;;;0.55;0.55;;;;;;;12.94;100.00;99894.50;7392349;19;20566;-54
2022/05/17 01:09:29;;;;;;;1.67;1.05;;;;;;;12.83;100.00;99902.75;7391906;19;20379;-54
2022/05/17 01:11:55;;;;;;;3.75;0.68;;;;;;;12.85;100.00;99901.03;7392576;19;20463;-54
2022/05/17 01:17:07;;;;;;;0.80;0.80;;;;;;;12.72;100.00;99897.03;7392592;19;20013;-54
2022/05/17 01:19:33;;;;;;;2.22;0.70;;;;;;;12.71;100.00;99895.50;7389395;19;20062;-54
2022/05/17 01:22:00;;;;;;;5.03;1.08;;;;;;;12.64;100.00;99902.28;7391550;19;20018;-54
2022/05/17 01:24:26;;;;;;;0.60;0.60;;;;;;;12.67;100.00;99903.31;7390391;19;20015;-54
2022/05/17 01:27:03;;;;;;;0.93;0.80;;;;;;;12.67;100.00;99906.09;7390561;19;20114;-54
2022/05/17 01:29:37;;;;;;;6.78;1.52;;;;;;;12.60;100.00;99907.31;7393319;19;20367;-54
2022/05/17 01:32:04;;;;;;;1.20;0.85;;;;;;;12.52;100.00;99905.41;7393319;19;20021;-54
2022/05/17 01:34:30;;;;;;;0.63;0.63;;;;;;;12.56;100.00;99917.91;7388569;19;20007;-54
2022/05/17 01:36:56;;;;;;;0.55;0.55;;;;;;;12.51;100.00;99915.06;7390196;19;20116;-54
2022/05/17 01:39:22;;;;;;;5.13;0.90;;;;;;;12.48;100.00;99922.38;7388277;19;20459;-54
2022/05/17 01:41:48;;;;;;;1.27;1.00;;;;;;;12.46;100.00;99913.72;7393060;19;20372;-54
2022/05/17 01:44:14;;;;;;;1.30;1.25;;;;;;;12.39;100.00;99914.13;7390046;19;20022;-57
2022/05/17 01:46:40;;;;;;;2.13;0.63;;;;;;;12.33;100.00;99904.91;7389576;19;20011;-54
2022/05/17 01:49:07;;;;;;;0.77;0.77;;;;;;;12.37;100.00;99910.28;7389351;19;20050;-54
2022/05/17 01:51:34;;;;;;;1.83;0.88;;;;;;;12.32;100.00;99908.97;7391352;19;20021;-54
2022/05/17 01:54:00;;;;;;;1.00;0.88;;;;;;;12.32;100.00;99905.38;7389836;19;20478;-54
2022/05/17 01:56:26;;;;;;;0.35;0.30;;;;;;;12.12;100.00;99904.09;7389542;19;20344;-54
2022/05/17 01:58:52;;;;;;;0.45;0.45;;;;;;;12.11;100.00;99896.97;7388962;19;20078;-54
2022/05/17 02:01:18;;;;;;;0.88;0.88;;;;;;;12.09;100.00;99899.47;7389327;19;20739;-54
2022/05/17 02:03:45;;;;;;;2.25;1.50;;;;;;;12.06;100.00;99908.81;7389821;19;20053;-53
2022/05/17 02:06:11;;;;;;;2.28;0.60;;;;;;;12.01;100.00;99905.94;7389583;19;20038;-54
2022/05/17 02:08:37;;;;;;;0.52;0.47;;;;;;;11.93;100.00;99902.03;7388755;19;20021;-54
2022/05/17 02:11:04;;;;;;;0.60;0.52;;;;;;;11.92;100.00;99912.41;7389412;19;20007;-54
2022/05/17 02:13:30;;;;;;;1.40;1.15;;;;;;;11.95;100.00;99908.63;7389923;19;20783;-54
2022/05/17 02:15:56;;;;;;;0.70;0.68;;;;;;;11.97;100.00;99908.94;7389783;19;20390;-54
2022/05/17 02:18:23;;;;;;;0.43;0.35;;;;;;;11.94;100.00;99907.09;7388659;19;20014;-54
2022/05/17 02:20:49;;;;;;;1.27;0.65;;;;;;;12.01;100.00;99906.72;7389242;19;20044;-54
2022/05/17 02:23:15;;;;;;;0.28;0.28;;;;;;;11.96;100.00;99899.03;7388939;19;20011;-54
2022/05/17 02:25:41;;;;;;;0.80;0.40;;;;;;;11.97;100.00;99900.56;7389475;19;20011;-54
2022/05/17 02:28:10;;;;;;;0.55;0.40;;;;;;;11.99;100.00;99902.88;7390385;19;20375;-54
2022/05/17 02:30:36;;;;;;;1.02;0.93;;;;;;;12.01;100.00;99898.34;7395100;19;20011;-54
2022/05/17 02:33:04;;;;;;;0.45;0.45;;;;;;;12.00;100.00;99891.22;7398443;19;20007;-54
2022/05/17 02:35:30;;;;;;;0.63;0.55;;;;;;;11.96;100.00;99903.81;7396034;19;20014;-54
2022/05/17 02:37:56;;;;;;;0.50;0.40;;;;;;;11.94;100.00;99890.38;7395583;19;20011;-54
2022/05/17 02:40:22;;;;;;;0.63;0.40;;;;;;;11.95;100.00;99903.03;7393252;19;20006;-54
2022/05/17 02:42:48;;;;;;;2.05;1.13;;;;;;;11.82;100.00;99899.06;7399966;19;20098;-54
2022/05/17 02:45:14;;;;;;;0.32;0.32;;;;;;;11.86;100.00;99903.19;7396149;19;20014;-54
2022/05/17 02:47:41;;;;;;;4.03;0.95;;;;;;;11.90;100.00;99898.16;7395877;19;20014;-54
2022/05/17 02:50:09;;;;;;;0.88;0.75;;;;;;;11.95;100.00;99903.03;7394668;19;20463;-54
2022/05/17 02:52:36;;;;;;;3.20;1.08;;;;;;;11.98;100.00;99910.47;7399056;19;20018;-54
2022/05/17 02:55:03;;;;;;;9.40;0.65;;;;;;;12.00;100.00;99918.34;7395924;19;20019;-54
2022/05/17 02:57:30;;;;;;;1.20;1.08;;;;;;;12.02;100.00;99904.66;7395387;19;20014;-54
2022/05/17 02:59:56;;;;;;;0.20;0.20;;;;;;;11.93;100.00;99915.97;7397467;19;20034;-54
2022/05/17 03:02:23;;;;;;;1.05;0.40;;;;;;;11.69;100.00;99906.94;7398789;19;20456;-54
2022/05/17 03:04:49;;;;;;;1.85;0.30;;;;;;;11.67;100.00;99910.22;7393938;19;20010;-54
2022/05/17 03:07:15;;;;;;;3.65;0.63;;;;;;;11.63;100.00;99909.59;7393294;19;20011;-54
2022/05/17 03:09:41;;;;;;;0.93;0.93;;;;;;;11.61;100.00;99912.09;7396065;19;20018;-54
2022/05/17 03:12:08;;;;;;;1.75;0.70;;;;;;;11.52;100.00;99903.06;7397818;19;20014;-54
2022/05/17 03:14:35;;;;;;;0.43;0.32;;;;;;;11.55;100.00;99902.88;7395268;19;20015;-54
2022/05/17 03:17:07;;;;;;;0.95;0.80;;;;;;;11.58;100.00;99907.50;7398134;19;20014;-54
2022/05/17 03:19:34;;;;;;;1.58;0.95;;;;;;;11.64;100.00;99910.38;7393075;19;20022;-54
2022/05/17 03:22:00;;;;;;;0.43;0.43;;;;;;;11.70;100.00;99912.03;7397319;19;20014;-54
2022/05/17 03:24:26;;;;;;;0.52;0.52;;;;;;;11.73;100.00;99905.50;7394375;19;20010;-54
2022/05/17 03:26:52;;;;;;;2.05;0.88;;;;;;;11.76;100.00;99901.72;7395230;19;20006;-54
2022/05/17 03:29:18;;;;;;;0.73;0.52;;;;;;;11.87;100.00;99901.91;7397225;19;20010;-54
2022/05/17 03:31:44;;;;;;;0.98;0.80;;;;;;;11.89;100.00;99899.41;7396903;19;20070;-54
2022/05/17 03:34:10;;;;;;;2.20;0.95;;;;;;;11.91;100.00;99902.47;7394542;19;20022;-54
2022/05/17 03:36:37;;;;;;;0.38;0.38;;;;;;;11.89;100.00;99907.78;7395131;19;20010;-54
2022/05/17 03:39:03;;;;;;;0.50;0.50;;;;;;;11.91;100.00;99908.06;7392226;19;20011;-54
2022/05/17 03:41:29;;;;;;;2.03;0.88;;;;;;;11.93;100.00;99911.13;7393432;19;20011;-54
2022/05/17 03:43:55;;;;;;;0.43;0.43;;;;;;;11.95;100.00;99907.88;7394027;19;20015;-54
2022/05/17 03:46:22;;;;;;;0.95;0.60;;;;;;;11.91;100.00;99902.47;7393124;19;20507;-54
2022/05/17 03:48:48;;;;;;;0.68;0.50;;;;;;;11.80;100.00;99907.88;7394341;19;20447;-53
2022/05/17 03:51:17;;;;;;;1.45;0.98;;;;;;;11.81;100.00;99909.44;7394535;19;20014;-53
2022/05/17 03:53:44;;;;;;;0.35;0.30;;;;;;;11.83;100.00;99901.34;7393755;19;20011;-53
2022/05/17 03:56:11;;;;;;;0.50;0.45;;;;;;;11.85;100.00;99909.22;7393461;19;20078;-53
2022/05/17 03:58:38;;;;;;;0.50;0.50;;;;;;;11.86;100.00;99913.56;7391759;19;20006;-53
2022/05/17 04:01:05;;;;;;;0.47;0.43;;;;;;;11.82;100.00;99919.34;7392342;19;20007;-53
2022/05/17 04:03:32;;;;;;;0.55;0.55;;;;;;;11.81;100.00;99915.00;7392428;19;20074;-53
2022/05/17 04:05:59;;;;;;;5.47;0.88;;;;;;;11.82;100.00;99922.16;7393954;19;20034;-53
2022/05/17 04:08:25;;;;;;;1.08;0.43;;;;;;;11.78;100.00;99921.53;7393630;19;20094;-53
2022/05/17 04:10:51;;;;;;;5.40;1.40;;;;;;;11.76;100.00;99918.47;7393455;19;20011;-53
2022/05/17 04:13:18;;;;;;;1.38;0.43;;;;;;;11.81;100.00;99920.59;7393254;19;20011;-54
2022/05/17 04:15:44;;;;;;;2.85;1.05;;;;;;;11.83;100.00;99923.66;7392818;19;20486;-54
2022/05/17 04:18:10;;;;;;;0.52;0.52;;;;;;;11.94;100.00;99932.22;7393078;19;20364;-53
2022/05/17 04:20:36;;;;;;;1.02;0.93;;;;;;;12.03;100.00;99932.13;7389157;19;20039;-53
2022/05/17 04:23:02;;;;;;;2.78;1.08;;;;;;;12.18;100.00;99927.28;7396832;19;20061;-53
2022/05/17 04:25:29;;;;;;;0.52;0.40;;;;;;;12.29;100.00;99934.28;7392058;19;20452;-53
2022/05/17 04:27:55;;;;;;;0.95;0.88;;;;;;;12.49;100.00;99935.09;7391965;19;20466;-53
2022/05/17 04:30:22;;;;;;;5.40;1.35;;;;;;;12.55;100.00;99937.97;7396384;19;20014;-53
2022/05/17 04:32:49;;;;;;;1.08;0.98;;;;;;;12.91;100.00;99940.19;7396725;19;20018;-53
2022/05/17 04:35:17;;;;;;;5.57;1.02;;;;;;;13.08;100.00;99924.44;7391826;19;20026;-53
2022/05/17 04:37:43;;;;;;;5.75;0.50;;;;;;;13.17;100.00;99932.66;7391375;19;20589;-54
2022/05/17 04:40:13;;;;;;;1.60;0.77;;;;;;;13.25;100.00;99928.22;7390656;19;20014;-53
2022/05/17 04:42:43;;;;;;;9.32;1.23;;;;;;;13.32;100.00;99921.41;7396171;19;20015;-53
2022/05/17 04:51:18;;;;;;;1.73;0.57;;;;;;;13.20;100.00;99930.91;7390145;19;20029;-64
2022/05/17 04:53:44;;;;;;;7.15;1.58;;;;;;;13.07;100.00;99925.69;7389985;19;20435;-63
2022/05/17 04:56:11;;;;;;;2.72;1.40;;;;;;;13.04;100.00;99935.03;7389375;19;20019;-64
2022/05/17 04:58:38;;;;;;;3.00;0.93;;;;;;;13.08;100.00;99930.03;7388858;19;20007;-63
2022/05/17 05:01:05;;;;;;;3.45;0.60;;;;;;;13.12;100.00;99935.41;7390255;19;20007;-63
2022/05/17 05:03:32;;;;;;;1.50;1.17;;;;;;;13.14;100.00;99933.66;7390871;19;20538;-63
2022/05/17 05:05:58;;;;;;;13.30;1.35;;;;;;;13.10;100.00;99927.53;7391046;19;20351;-63
2022/05/17 05:08:24;;;;;;;1.15;1.00;;;;;;;13.11;100.00;99931.06;7388658;19;20035;-63
2022/05/17 05:10:51;;;;;;;0.75;0.75;;;;;;;13.13;100.00;99937.72;7389503;19;20011;-63
2022/05/17 05:13:19;;;;;;;0.47;0.22;;;;;;;13.16;100.00;99941.56;7390862;19;20028;-63
2022/05/17 05:15:46;;;;;;;4.68;0.63;;;;;;;13.22;100.00;99940.38;7389542;19;20006;-63
2022/05/17 05:18:13;;;;;;;4.22;0.57;;;;;;;13.28;100.00;99938.38;7390641;19;20014;-63
2022/05/17 05:20:40;;;;;;;1.35;0.75;;;;;;;13.37;100.00;99951.44;7387285;19;20013;-64
2022/05/17 05:23:07;;;;;;;13.60;1.38;;;;;;;13.45;100.00;99947.72;7395124;19;20015;-63
2022/05/17 05:25:36;;;;;;;1.25;0.73;;;;;;;13.54;100.00;99944.00;7390678;19;20040;-64
2022/05/17 05:28:03;;;;;;;0.75;0.57;;;;;;;13.62;100.00;99940.25;7388884;19;20396;-63
2022/05/17 05:30:30;;;;;;;2.00;0.68;;;;;;;13.59;100.00;99941.28;7389716;19;20027;-63
2022/05/17 05:32:57;;;;;;;0.50;0.47;;;;;;;13.54;100.00;99944.78;7395045;19;20014;-63
2022/05/17 05:35:25;;;;;;;0.50;0.50;;;;;;;13.74;100.00;99943.16;7389454;19;20018;-63
2022/05/17 05:37:54;;;;;;;1.23;0.68;;;;;;;13.79;100.00;99939.66;7390254;19;20011;-64
2022/05/17 05:40:21;;;;;;;4.10;0.68;;;;;;;13.87;100.00;99949.13;7387305;19;20011;-64
2022/05/17 05:42:53;;;;;;;0.80;0.80;;;;;;;14.00;100.00;99952.31;7394050;19;20705;-64
2022/05/17 05:45:20;;;;;;;2.80;0.82;;;;;;;14.08;100.00;99958.97;7388214;19;20018;-63
2022/05/17 05:47:46;;;;;;;2.90;1.08;;;;;;;14.19;100.00;99954.25;7390218;19;20395;-63
2022/05/17 05:50:12;;;;;;;1.25;1.15;;;;;;;14.32;100.00;99948.25;7387434;19;20019;-63
2022/05/17 05:52:39;;;;;;;6.22;0.77;;;;;;;14.50;100.00;99950.66;7391771;19;20021;-64
2022/05/17 05:55:07;;;;;;;4.32;0.95;;;;;;;14.67;100.00;99954.34;7389874;19;20461;-64
2022/05/17 05:57:33;;;;;;;8.88;1.10;;;;;;;14.81;100.00;99952.63;7387573;19;20022;-64
2022/05/17 05:59:59;;;;;;;3.97;0.80;;;;;;;14.88;100.00;99952.91;7391563;19;20022;-63
2022/05/17 06:02:25;;;;;;;4.03;0.90;;;;;;;15.00;100.00;99950.94;7391135;19;20018;-63
2022/05/17 06:04:52;;;;;;;0.45;0.40;;;;;;;15.09;100.00;99951.47;7387378;19;20071;-64
2022/05/17 06:07:18;;;;;;;1.45;0.73;;;;;;;15.17;100.00;99957.38;7386844;19;20010;-64
2022/05/17 06:09:45;;;;;;;2.17;0.73;;;;;;;15.24;100.00;99961.72;7388344;19;20014;-64
2022/05/17 06:12:11;;;;;;;1.55;1.02;;;;;;;15.41;100.00;99951.31;7389732;19;20011;-63
2022/05/17 06:14:37;;;;;;;6.43;1.70;;;;;;;15.51;100.00;99947.03;7390122;19;20015;-63
2022/05/17 06:17:04;;;;;;;6.30;1.08;;;;;;;15.56;100.00;99947.06;7386889;19;20046;-64
2022/05/17 06:19:32;;;;;;;9.95;0.40;;;;;;;15.70;100.00;99962.88;7388061;19;20466;-63
2022/05/17 06:21:58;;;;;;;4.95;1.75;;;;;;;15.90;100.00;99967.50;7390303;19;20018;-63
2022/05/17 06:24:24;;;;;;;6.13;1.17;;;;;;;16.01;100.00;99967.53;7389049;19;20014;-63
2022/05/17 06:26:50;;;;;;;0.95;0.60;;;;;;;16.08;100.00;99966.25;7385708;19;20406;-63
2022/05/17 06:29:16;;;;;;;13.57;1.00;;;;;;;16.16;100.00;99967.25;7390444;19;20011;-63
2022/05/17 06:31:43;;;;;;;3.97;0.50;;;;;;;16.33;100.00;99965.97;7391476;19;20014;-63
2022/05/17 06:34:09;;;;;;;5.88;0.52;;;;;;;16.42;100.00;99971.34;7389572;19;20503;-63
2022/05/17 06:36:35;;;;;;;8.07;1.23;;;;;;;16.42;100.00;99964.94;7390715;19;20454;-63
2022/05/17 06:39:02;;;;;;;3.72;1.02;;;;;;;16.43;100.00;99958.81;7388160;19;20074;-63
2022/05/17 06:41:28;;;;;;;6.40;1.70;;;;;;;16.01;100.00;99961.91;7390270;19;20203;-63
2022/05/17 06:50:18;;;;;;;10.35;1.02;;;;;;;16.49;100.00;99961.63;7389182;19;20013;-61
2022/05/17 06:52:45;;;;;;;16.20;1.45;;;;;;;16.52;100.00;99964.19;7388905;19;20361;-61
2022/05/17 06:55:13;;;;;;;20.80;2.25;;;;;;;16.62;100.00;99959.06;7385061;19;20015;-61
2022/05/17 06:57:42;;;;;;;6.15;0.52;;;;;;;16.64;100.00;99962.91;7386427;19;20011;-61
2022/05/17 07:00:12;;;;;;;5.80;1.35;;;;;;;16.65;100.00;99964.41;7388886;19;20454;-60
2022/05/17 07:02:39;;;;;;;3.17;0.93;;;;;;;16.54;100.00;99961.66;7389395;19;20368;-61
2022/05/17 07:05:06;;;;;;;0.93;0.57;;;;;;;16.58;100.00;99964.97;7385210;19;20070;-61
2022/05/17 07:07:32;;;;;;;4.88;1.15;;;;;;;16.80;100.00;99963.38;7387845;19;20010;-60
2022/05/17 07:15:28;;;;;;;1.52;0.20;;;;;;;17.30;100.00;99961.13;7394267;19;20090;-61
2022/05/17 07:17:56;;;;;;;6.57;1.23;;;;;;;17.42;100.00;99971.81;7395161;19;20040;-61
2022/05/17 07:20:23;;;;;;;5.45;1.00;;;;;;;17.57;100.00;99974.31;7390393;19;20353;-61
2022/05/17 07:22:49;;;;;;;8.77;0.60;;;;;;;17.66;100.00;99982.47;7395072;19;20477;-61
2022/05/17 07:25:15;;;;;;;4.13;1.02;;;;;;;17.70;100.00;99976.53;7394534;19;20014;-61
2022/05/17 07:27:41;;;;;;;5.03;0.88;;;;;;;17.74;100.00;99972.16;7393225;19;20434;-60
2022/05/17 07:30:08;;;;;;;12.38;1.52;;;;;;;17.75;100.00;99965.25;7396658;19;20011;-60
2022/05/17 07:32:34;;;;;;;1.52;0.43;;;;;;;17.77;100.00;99973.94;7396426;19;20022;-61
2022/05/17 07:35:00;;;;;;;5.75;0.65;;;;;;;17.78;100.00;99969.81;7393197;19;20006;-61
2022/05/17 07:37:26;;;;;;;8.02;1.50;;;;;;;17.88;100.00;99971.06;7392237;19;20014;-61
2022/05/17 07:39:53;;;;;;;2.60;1.00;;;;;;;17.92;100.00;99977.16;7392736;19;20035;-61
2022/05/17 07:42:19;;;;;;;4.15;1.35;;;;;;;18.03;100.00;99965.81;7394257;19;20054;-61
2022/05/17 07:44:45;;;;;;;6.28;0.93;;;;;;;18.09;100.00;99968.56;7392142;19;20011;-61
2022/05/17 07:47:13;;;;;;;5.18;0.95;;;;;;;18.16;100.00;99974.41;7397803;19;20011;-61
2022/05/17 07:49:39;;;;;;;1.58;0.68;;;;;;;18.25;100.00;99976.13;7391869;19;20014;-61
2022/05/17 07:52:06;;;;;;;6.05;0.82;;;;;;;18.18;100.00;99974.66;7396670;19;20014;-61
2022/05/17 07:54:33;;;;;;;1.83;1.00;;;;;;;18.21;100.00;99977.72;7392321;19;20471;-61
2022/05/17 07:56:59;;;;;;;4.60;1.17;;;;;;;18.25;100.00;99981.78;7392034;19;20011;-61
2022/05/17 07:59:25;;;;;;;9.27;1.52;;;;;;;18.30;100.00;99983.03;7394079;19;20095;-61
2022/05/17 08:01:51;;;;;;;3.45;1.00;;;;;;;18.36;100.00;99976.03;7395029;19;20021;-62
2022/05/17 08:04:17;;;;;;;4.68;0.55;;;;;;;18.42;100.00;99978.81;7393548;19;20003;-62
2022/05/17 08:06:45;;;;;;;1.85;0.80;;;;;;;18.76;100.00;99977.97;7393835;19;20017;-61
2022/05/17 08:09:11;;;;;;;1.67;0.35;;;;;;;18.89;100.00;99974.50;7391504;19;20018;-62
2022/05/17 08:11:40;;;;;;;2.60;0.90;;;;;;;18.99;100.00;99981.31;7393261;19;20007;-61
2022/05/17 08:14:06;;;;;;;5.65;1.52;;;;;;;19.30;100.00;99977.06;7391878;19;20011;-61
2022/05/17 08:16:34;;;;;;;7.47;0.80;;;;;;;19.67;100.00;99983.53;7392359;19;20088;-61
2022/05/17 08:19:00;;;;;;;3.70;0.60;;;;;;;20.00;100.00;99981.50;7391166;19;20022;-61
2022/05/17 08:21:26;;;;;;;5.65;0.90;;;;;;;20.23;100.00;99983.47;7394351;19;20027;-61
2022/05/17 08:23:52;;;;;;;3.53;0.73;;;;;;;20.24;100.00;99972.94;7392878;19;20019;-62
2022/05/17 08:29:03;;;;;;;1.48;0.38;;;;;;;20.10;100.00;99974.91;7393298;19;20026;-62
2022/05/17 08:31:29;;;;;;;4.13;0.68;;;;;;;20.17;100.00;99967.88;7394293;19;20035;-62
2022/05/17 08:33:55;;;;;;;0.90;0.47;;;;;;;20.21;100.00;99974.00;7390052;19;20006;-62
2022/05/17 08:36:21;;;;;;;4.03;0.65;;;;;;;20.28;100.00;99959.22;7392130;19;20014;-62
2022/05/17 08:38:50;;;;;;;2.92;0.40;;;;;;;20.25;100.00;99960.28;7392105;19;20557;-62
2022/05/17 08:41:26;;;;;;;3.80;0.77;;;;;;;20.16;100.00;99966.34;7392039;19;20017;-63
2022/05/17 08:43:57;;;;;;;4.15;1.88;;;;;;;20.13;100.00;99961.78;7389887;19;20018;-62
2022/05/17 08:46:32;;;;;;;9.32;0.82;;;;;;;20.25;100.00;99963.91;7394409;19;20022;-62
2022/05/17 08:49:19;;;;;;;3.00;0.77;;;;;;;20.36;100.00;99963.72;7392804;19;20020;-62
2022/05/17 08:51:59;;;;;;;6.55;0.50;;;;;;;20.47;100.00;99957.09;7393634;19;20028;-63
2022/05/17 08:54:30;;;;;;;1.53;0.83;;;;;;;20.59;100.00;99954.81;7392133;19;20850;-63
2022/05/17 08:57:05;;;;;;;;;;;;;;;20.63;100.00;99949.59;7392119;19;20234;-63
2022/05/17 08:59:34;;;;;;;2.17;0.63;;;;;;;20.65;100.00;99956.25;7393860;19;19998;-64
2022/05/17 09:02:19;;;;;;;4.50;0.60;;;;;;;20.71;100.00;99950.47;7392196;19;20505;-63
2022/05/17 09:04:51;;;;;;;3.70;0.52;;;;;;;20.76;100.00;99955.28;7392366;19;20332;-64
2022/05/17 09:07:24;;;;;;;6.78;1.05;;;;;;;21.01;100.00;99965.84;7391572;19;20475;-63
2022/05/17 09:10:07;;;;;;;6.97;0.77;;;;;;;21.23;100.00;99958.97;7392475;19;20010;-63
2022/05/17 09:12:48;;;;;;;5.20;1.08;;;;;;;21.51;100.00;99955.53;7393719;19;20060;-64
2022/05/17 09:15:16;;;;;;;4.93;0.73;;;;;;;21.66;100.00;99961.38;7388739;19;20428;-63
2022/05/17 09:17:44;;;;;;;0.68;0.35;;;;;;;21.68;100.00;99953.84;7388772;19;20007;-63
2022/05/17 09:20:14;;;;;;;5.45;1.10;;;;;;;21.71;100.00;99955.59;7389306;19;20014;-64
2022/05/17 09:22:42;;;;;;;1.65;0.63;;;;;;;21.87;100.00;99959.38;7395388;19;20300;-63
2022/05/17 09:25:36;;;;;;;1.92;0.28;;;;;;;22.02;100.00;99958.78;7390970;19;20015;-64
2022/05/17 09:28:03;;;;;;;2.65;0.47;;;;;;;22.01;100.00;99946.66;7387966;19;20010;-63
2022/05/17 09:30:35;;;;;;;5.65;0.50;;;;;;;21.90;100.00;99952.59;7395467;19;20371;-64
2022/05/17 09:33:04;;;;;;;0.45;0.35;;;;;;;21.95;100.00;99936.75;7392896;19;20359;-64
2022/05/17 09:35:32;;;;;;;0.60;0.30;;;;;;;22.14;100.00;99948.66;7390569;19;20038;-64
2022/05/17 09:38:03;;;;;;;1.98;0.93;;;;;;;22.16;100.00;99946.81;7389602;19;20018;-64
2022/05/17 09:40:35;;;;;;;0.82;0.43;;;;;;;22.29;100.00;99948.78;7388780;19;20006;-63
2022/05/17 09:43:05;;;;;;;4.15;1.25;;;;;;;22.30;100.00;99944.66;7394314;19;20538;-63
2022/05/17 09:45:40;;;;;;;4.00;0.40;;;;;;;22.21;100.00;99931.72;7390068;19;20032;-63
2022/05/17 09:48:09;;;;;;;3.42;0.82;;;;;;;22.33;100.00;99923.66;7389642;19;20006;-64
2022/05/17 09:53:48;;;;;;;2.35;0.13;;;;;;;23.11;100.00;99920.22;7389426;19;20095;-63
2022/05/17 09:56:16;;;;;;;4.75;1.75;;;;;;;23.34;100.00;99911.84;7389362;19;20014;-63
2022/05/17 09:58:44;;;;;;;3.33;0.52;;;;;;;23.38;100.00;99920.75;7390995;19;20007;-63
2022/05/17 10:01:36;;;;;;;2.55;0.95;;;;;;;23.41;100.00;99918.88;7390292;19;20011;-64
2022/05/17 10:04:05;;;;;;;5.35;0.57;;;;;;;23.46;100.00;99903.69;7388770;19;20006;-63
2022/05/17 10:06:41;;;;;;;4.22;0.60;;;;;;;23.71;100.00;99907.56;7392337;19;20017;-63
2022/05/17 10:09:25;;;;;;;4.97;0.77;;;;;;;23.83;100.00;99903.78;7389251;19;20454;-64
2022/05/17 10:12:19;;;;;;;0.75;0.47;;;;;;;23.70;100.00;99901.13;7388526;19;20018;-64
2022/05/17 10:14:49;;;;;;;7.88;0.85;;;;;;;23.53;100.00;99898.06;7389439;19;20038;-63
2022/05/17 10:17:15;;;;;;;;;;;;;;;23.41;100.00;99898.97;7388643;19;20392;-63
2022/05/17 10:19:56;;;;;;;1.63;0.30;;;;;;;23.03;100.00;99895.94;7387513;19;19915;-63
2022/05/17 10:22:42;;;;;;;2.53;0.63;;;;;;;23.11;100.00;99894.66;7392102;19;20026;-64
2022/05/17 10:25:29;;;;;;;4.32;0.25;;;;;;;23.50;100.00;99893.47;7389556;19;20033;-63
2022/05/17 10:28:06;;;;;;;1.55;0.45;;;;;;;23.87;100.00;99887.13;7389382;19;20458;-63
2022/05/17 10:30:45;;;;;;;1.88;0.82;;;;;;;24.21;100.00;99880.34;7393890;19;20024;-63
2022/05/17 10:33:19;;;;;;;4.45;1.05;;;;;;;24.32;100.00;99874.25;7388790;19;20022;-64
2022/05/17 10:35:50;;;;;;;0.90;0.10;;;;;;;24.25;100.00;99872.16;7388648;19;20014;-62
2022/05/17 10:38:25;;;;;;;8.23;1.17;;;;;;;24.34;100.00;99868.75;7388931;19;20014;-64
2022/05/17 10:40:53;;;;;;;5.35;1.33;;;;;;;24.29;100.00;99864.75;7386950;19;20010;-64
2022/05/17 10:43:41;;;;;;;7.78;0.43;;;;;;;24.47;100.00;99863.56;7388608;19;20021;-62
2022/05/17 10:46:15;;;;;;;2.63;0.93;;;;;;;24.70;100.00;99857.84;7390656;19;20011;-62
2022/05/17 10:49:01;;;;;;;4.60;0.93;;;;;;;24.68;100.00;99849.13;7387492;19;20021;-62
2022/05/17 10:51:45;;;;;;;1.02;0.30;;;;;;;24.35;100.00;99844.63;7394908;19;20015;-63
2022/05/17 10:55:07;;;;;;;2.85;0.32;;;;;;;23.98;100.00;99849.00;7396054;19;20010;-62
2022/05/17 10:57:45;;;;;;;3.63;0.47;;;;;;;24.01;100.00;99834.41;7393014;19;20014;-62
2022/05/17 11:00:18;;;;;;;5.95;0.73;;;;;;;24.25;100.00;99835.16;7398153;19;20370;-63
2022/05/17 11:03:15;;;;;;;6.85;1.25;;;;;;;24.69;100.00;99836.38;7398940;19;20011;-63
2022/05/17 11:06:00;;;;;;;3.30;0.43;;;;;;;24.51;100.00;99840.44;7395880;19;20015;-62
2022/05/17 11:08:41;;;;;;;9.30;0.90;;;;;;;24.56;100.00;99836.63;7394345;19;20015;-63
2022/05/17 11:11:26;;;;;;;3.92;1.17;;;;;;;24.64;100.00;99829.59;7396012;19;20010;-62
2022/05/17 11:13:53;;;;;;;3.88;0.88;;;;;;;24.44;100.00;99829.81;7394414;19;20010;-63
2022/05/17 11:16:24;;;;;;;3.65;0.40;;;;;;;24.09;100.00;99826.66;7395450;19;20006;-62
2022/05/17 11:18:58;;;;;;;3.10;0.60;;;;;;;24.05;100.00;99822.66;7395521;19;20011;-63
2022/05/17 11:21:42;;;;;;;5.82;1.05;;;;;;;24.16;100.00;99821.50;7395961;19;20098;-63
2022/05/17 11:24:46;;;;;;;4.90;0.32;;;;;;;24.37;100.00;99830.56;7392787;19;20021;-63
2022/05/17 11:27:24;;;;;;;1.30;0.60;;;;;;;24.26;100.00;99819.59;7395206;19;20017;-63
2022/05/17 11:30:09;;;;;;;9.13;0.28;;;;;;;24.44;100.00;99824.13;7398839;19;20038;-63
2022/05/17 11:33:20;;;;;;;4.93;1.15;;;;;;;24.94;100.00;99814.50;7398357;19;20010;-62
2022/05/17 11:36:00;;;;;;;7.05;0.63;;;;;;;25.39;100.00;99804.91;7395287;19;20108;-63
2022/05/17 11:38:35;;;;;;;12.00;0.90;;;;;;;25.26;100.00;99805.94;7392294;19;20366;-63
2022/05/17 11:41:35;;;;;;;1.13;0.40;;;;;;;25.04;100.00;99795.44;7393897;19;20011;-63
2022/05/17 11:44:07;;;;;;;;;;;;;;;24.96;100.00;99794.72;7394253;19;20447;-64
2022/05/17 11:46:54;;;;;;;6.18;1.33;;;;;;;24.85;100.00;99789.44;7396626;19;19918;-63
2022/05/17 11:49:32;;;;;;;4.68;0.30;;;;;;;24.83;100.00;99792.13;7394337;19;20014;-63
2022/05/17 11:51:58;;;;;;;11.20;0.68;;;;;;;24.79;100.00;99783.22;7395681;19;20037;-63
2022/05/17 11:54:59;;;;;;;1.95;0.17;;;;;;;24.92;100.00;99788.66;7394565;19;20044;-63
2022/05/17 11:57:26;;;;;;;1.40;0.15;;;;;;;25.19;100.00;99783.94;7391679;19;20106;-63
2022/05/17 11:59:52;;;;;;;6.22;1.13;;;;;;;25.48;100.00;99793.69;7393061;19;20018;-63
2022/05/17 12:02:18;;;;;;;1.65;0.43;;;;;;;25.62;100.00;99779.88;7393483;19;20013;-63
2022/05/17 12:04:46;;;;;;;13.55;1.35;;;;;;;25.84;100.00;99773.22;7393596;19;20002;-63
2022/05/17 12:07:33;;;;;;;2.00;0.57;;;;;;;25.87;100.00;99777.00;7392832;19;20672;-64
2022/05/17 12:10:16;;;;;;;0.63;0.10;;;;;;;25.80;100.00;99772.88;7393353;19;20011;-64